createdAt,value
2022-10-19T00:00:29.976Z,99.36
2022-10-19T00:02:56.450Z,99.35
2022-10-19T00:05:22.861Z,99.70
2022-10-19T00:07:49.292Z,99.70
2022-10-19T00:10:15.866Z,99.89
2022-10-19T00:12:42.374Z,100.00
2022-10-19T00:15:09.227Z,100.00
2022-10-19T00:17:35.927Z,100.00
2022-10-19T00:20:02.455Z,100.00
2022-10-19T00:22:28.853Z,100.00
2022-10-19T00:24:56.893Z,100.00
2022-10-19T00:27:23.291Z,100.00
2022-10-19T00:29:49.702Z,100.00
2022-10-19T00:32:16.084Z,100.00
2022-10-19T00:34:42.512Z,100.00
2022-10-19T00:37:08.943Z,100.00
2022-10-19T00:39:35.348Z,100.00
2022-10-19T00:42:01.763Z,100.00
2022-10-19T00:44:30.895Z,100.00
2022-10-19T00:47:02.145Z,100.00
2022-10-19T00:49:31.028Z,100.00
2022-10-19T00:52:02.079Z,100.00
2022-10-19T00:54:31.605Z,100.00
2022-10-19T00:56:58.937Z,100.00
2022-10-19T00:59:27.058Z,100.00
2022-10-19T01:01:54.307Z,100.00
2022-10-19T01:04:22.091Z,100.00
2022-10-19T01:06:48.568Z,100.00
2022-10-19T01:09:15.024Z,100.00
2022-10-19T01:12:03.789Z,100.00
2022-10-19T01:14:48.194Z,100.00
2022-10-19T01:17:29.680Z,100.00
2022-10-19T01:20:03.195Z,100.00
2022-10-19T01:23:00.340Z,100.00
2022-10-19T01:25:42.259Z,100.00
2022-10-19T01:28:18.266Z,100.00
2022-10-19T01:30:59.104Z,100.00
2022-10-19T01:33:54.021Z,100.00
2022-10-19T01:36:31.889Z,100.00
2022-10-19T01:39:17.591Z,100.00
2022-10-19T01:42:02.146Z,100.00
2022-10-19T01:44:39.556Z,100.00
2022-10-19T01:47:10.241Z,100.00
2022-10-19T01:50:03.450Z,100.00
2022-10-19T01:52:30.933Z,100.00
2022-10-19T01:55:00.657Z,100.00
2022-10-19T01:57:31.665Z,100.00
2022-10-19T01:59:58.251Z,100.00
2022-10-19T02:02:28.045Z,100.00
2022-10-19T02:04:56.894Z,100.00
2022-10-19T02:07:24.628Z,100.00
2022-10-19T02:09:51.033Z,100.00
2022-10-19T02:12:17.910Z,100.00
2022-10-19T02:14:47.846Z,100.00
2022-10-19T02:17:21.095Z,100.00
2022-10-19T02:19:47.500Z,100.00
2022-10-19T02:22:13.999Z,100.00
2022-10-19T02:24:40.540Z,100.00
2022-10-19T02:27:07.895Z,100.00
2022-10-19T02:29:34.532Z,100.00
2022-10-19T02:32:01.531Z,100.00
2022-10-19T02:34:28.048Z,100.00
2022-10-19T02:36:54.847Z,100.00
2022-10-19T02:39:21.596Z,100.00
2022-10-19T02:42:10.535Z,100.00
2022-10-19T02:44:43.771Z,100.00
2022-10-19T02:47:30.211Z,100.00
2022-10-19T02:49:56.692Z,100.00
2022-10-19T02:52:23.128Z,100.00
2022-10-19T02:54:49.536Z,100.00
2022-10-19T02:57:18.728Z,100.00
2022-10-19T02:59:45.225Z,100.00
2022-10-19T03:02:12.217Z,100.00
2022-10-19T03:04:38.838Z,100.00
2022-10-19T03:07:05.368Z,100.00
2022-10-19T03:09:31.760Z,100.00
2022-10-19T03:11:58.368Z,100.00
2022-10-19T03:14:24.784Z,100.00
2022-10-19T03:16:51.204Z,100.00
2022-10-19T03:19:17.697Z,100.00
2022-10-19T03:21:44.086Z,100.00
2022-10-19T03:24:10.490Z,100.00
2022-10-19T03:26:37.294Z,100.00
2022-10-19T03:29:04.091Z,100.00
2022-10-19T03:31:30.547Z,100.00
2022-10-19T03:33:56.936Z,100.00
2022-10-19T03:36:25.631Z,100.00
2022-10-19T03:38:53.509Z,100.00
2022-10-19T03:41:21.250Z,100.00
2022-10-19T03:43:47.654Z,100.00
2022-10-19T03:46:14.135Z,100.00
2022-10-19T03:48:40.566Z,100.00
2022-10-19T03:51:09.600Z,99.83
2022-10-19T03:53:36.842Z,99.90
2022-10-19T03:56:05.764Z,99.68
2022-10-19T03:58:34.105Z,99.84
2022-10-19T04:01:00.725Z,99.72
2022-10-19T04:03:27.542Z,99.57
2022-10-19T04:06:11.553Z,99.50
2022-10-19T04:08:38.003Z,99.28
2022-10-19T04:11:06.899Z,99.54
2022-10-19T04:13:34.274Z,99.60
2022-10-19T04:16:00.892Z,99.82
2022-10-19T04:18:27.549Z,99.84
2022-10-19T04:21:03.031Z,99.58
2022-10-19T04:23:31.192Z,99.72
2022-10-19T04:26:06.336Z,100.00
2022-10-19T04:28:33.743Z,99.48
2022-10-19T04:31:07.047Z,99.48
2022-10-19T04:33:34.522Z,99.52
2022-10-19T04:36:02.158Z,99.27
2022-10-19T04:38:29.102Z,99.32
2022-10-19T04:40:56.143Z,98.96
2022-10-19T04:43:22.815Z,98.89
2022-10-19T04:45:49.212Z,98.92
2022-10-19T04:48:15.592Z,98.73
2022-10-19T04:50:42.017Z,98.49
2022-10-19T04:53:08.433Z,98.60
2022-10-19T04:55:34.870Z,98.80
2022-10-19T04:58:01.260Z,98.47
2022-10-19T05:00:27.716Z,98.49
2022-10-19T05:02:54.211Z,98.31
2022-10-19T05:05:20.661Z,98.67
2022-10-19T05:07:48.870Z,98.11
2022-10-19T05:10:15.301Z,97.88
2022-10-19T05:12:41.706Z,97.83
2022-10-19T05:15:08.730Z,97.85
2022-10-19T05:17:35.549Z,98.10
2022-10-19T05:20:02.373Z,98.04
2022-10-19T05:22:28.815Z,97.70
2022-10-19T05:24:58.077Z,97.98
2022-10-19T05:27:24.844Z,98.25
2022-10-19T05:29:51.212Z,97.99
2022-10-19T05:32:17.641Z,98.35
2022-10-19T05:34:44.068Z,98.25
2022-10-19T05:37:10.444Z,98.09
2022-10-19T05:39:36.853Z,98.69
2022-10-19T05:42:03.416Z,98.87
2022-10-19T05:44:29.841Z,99.16
2022-10-19T05:46:56.316Z,98.93
2022-10-19T05:49:22.761Z,98.87
2022-10-19T05:51:49.608Z,98.66
2022-10-19T05:54:16.395Z,98.51
2022-10-19T05:56:43.053Z,98.79
2022-10-19T05:59:13.972Z,98.45
2022-10-19T06:01:40.488Z,98.63
2022-10-19T06:04:07.520Z,98.55
2022-10-19T06:06:34.089Z,98.56
2022-10-19T06:09:00.946Z,98.41
2022-10-19T06:11:29.591Z,98.37
2022-10-19T06:13:58.127Z,98.46
2022-10-19T06:16:25.937Z,98.04
2022-10-19T06:18:53.155Z,98.46
2022-10-19T06:21:21.725Z,98.37
2022-10-19T06:23:52.777Z,98.25
2022-10-19T06:26:20.429Z,98.01
2022-10-19T06:28:47.504Z,98.12
2022-10-19T06:31:14.752Z,98.10
2022-10-19T06:33:43.175Z,97.70
2022-10-19T06:36:19.344Z,98.02
2022-10-19T06:38:46.058Z,97.72
2022-10-19T06:41:12.988Z,98.01
2022-10-19T06:43:39.599Z,98.00
2022-10-19T06:46:15.406Z,97.76
2022-10-19T06:48:42.365Z,97.30
2022-10-19T06:51:08.733Z,97.21
2022-10-19T06:53:36.166Z,96.92
2022-10-19T06:56:05.204Z,97.40
2022-10-19T06:58:35.368Z,97.26
2022-10-19T07:01:02.317Z,97.50
2022-10-19T07:03:30.552Z,97.40
2022-10-19T07:05:59.456Z,97.33
2022-10-19T07:08:27.344Z,96.80
2022-10-19T07:10:58.024Z,96.59
2022-10-19T07:13:25.341Z,96.66
2022-10-19T07:15:57.565Z,96.90
2022-10-19T07:18:24.340Z,96.69
2022-10-19T07:20:57.504Z,97.22
2022-10-19T07:23:25.155Z,97.20
2022-10-19T07:25:53.455Z,97.60
2022-10-19T07:28:21.417Z,97.57
2022-10-19T07:30:47.922Z,97.74
2022-10-19T07:33:14.411Z,97.62
2022-10-19T07:35:40.959Z,97.49
2022-10-19T07:38:08.448Z,97.50
2022-10-19T07:40:35.423Z,97.23
2022-10-19T07:43:02.004Z,97.37
2022-10-19T07:45:29.968Z,97.19
2022-10-19T07:47:56.638Z,97.23
2022-10-19T07:50:24.594Z,96.93
2022-10-19T07:52:52.134Z,96.72
2022-10-19T07:55:19.292Z,96.51
2022-10-19T07:57:49.539Z,96.76
2022-10-19T08:00:16.778Z,96.85
2022-10-19T08:02:59.829Z,96.62
2022-10-19T08:05:32.699Z,96.73
2022-10-19T08:07:59.128Z,96.34
2022-10-19T08:10:25.540Z,96.72
2022-10-19T08:12:51.919Z,96.58
2022-10-19T08:15:18.491Z,96.73
2022-10-19T08:17:44.938Z,96.56
2022-10-19T08:20:11.333Z,96.62
2022-10-19T08:22:37.858Z,96.75
2022-10-19T08:25:04.543Z,96.62
2022-10-19T08:27:30.995Z,96.34
2022-10-19T08:29:57.447Z,95.97
2022-10-19T08:32:23.871Z,96.79
2022-10-19T08:34:50.232Z,96.13
2022-10-19T08:37:32.591Z,95.81
2022-10-19T08:40:03.486Z,95.98
2022-10-19T08:42:59.368Z,96.12
2022-10-19T08:45:31.027Z,95.99
2022-10-19T08:48:00.888Z,95.93
2022-10-19T08:50:39.352Z,95.81
2022-10-19T08:53:48.805Z,95.92
2022-10-19T08:56:49.254Z,95.99
2022-10-19T08:59:22.065Z,96.20
2022-10-19T09:02:08.441Z,95.83
2022-10-19T09:04:45.130Z,95.80
2022-10-19T09:07:29.572Z,95.91
2022-10-19T09:09:59.899Z,95.80
2022-10-19T09:12:43.305Z,95.92
2022-10-19T09:15:20.879Z,95.44
2022-10-19T09:17:47.496Z,95.07
2022-10-19T09:20:22.921Z,95.23
2022-10-19T09:23:00.032Z,95.39
2022-10-19T09:25:27.171Z,95.06
2022-10-19T09:28:04.336Z,94.77
2022-10-19T09:30:33.896Z,94.48
2022-10-19T09:33:01.334Z,94.37
2022-10-19T09:35:33.572Z,94.11
2022-10-19T09:38:00.404Z,94.29
2022-10-19T09:40:28.924Z,93.75
2022-10-19T09:42:59.321Z,94.01
2022-10-19T09:45:46.788Z,93.87
2022-10-19T09:48:38.132Z,93.53
2022-10-19T09:51:11.849Z,93.47
2022-10-19T09:53:38.374Z,93.36
2022-10-19T09:56:07.590Z,92.65
2022-10-19T09:58:34.890Z,92.59
2022-10-19T10:01:02.352Z,92.74
2022-10-19T10:03:30.383Z,92.62
2022-10-19T10:05:59.303Z,92.35
2022-10-19T10:08:31.280Z,91.58
2022-10-19T10:11:27.676Z,91.54
2022-10-19T10:13:55.258Z,91.39
2022-10-19T10:16:23.672Z,91.20
2022-10-19T10:18:51.565Z,90.97
2022-10-19T10:21:47.264Z,90.67
2022-10-19T10:24:13.543Z,90.60
2022-10-19T10:26:42.319Z,90.20
2022-10-19T10:29:25.397Z,89.96
2022-10-19T10:31:55.144Z,89.52
2022-10-19T10:37:28.676Z,88.78
2022-10-19T10:39:59.194Z,89.29
2022-10-19T10:42:37.416Z,88.93
2022-10-19T10:45:04.820Z,88.54
2022-10-19T10:47:31.438Z,88.46
2022-10-19T10:50:01.158Z,88.39
2022-10-19T10:52:31.252Z,87.45
2022-10-19T10:55:04.286Z,87.59
2022-10-19T10:57:34.336Z,87.73
2022-10-19T11:00:14.586Z,87.27
2022-10-19T11:03:15.608Z,86.99
2022-10-19T11:05:45.269Z,86.01
2022-10-19T11:08:49.301Z,85.74
2022-10-19T11:11:22.845Z,85.59
2022-10-19T11:14:30.027Z,85.03
2022-10-19T11:16:59.860Z,85.06
2022-10-19T11:19:30.728Z,85.42
2022-10-19T11:22:15.597Z,85.24
2022-10-19T11:24:53.984Z,85.48
2022-10-19T11:27:58.781Z,84.87
2022-10-19T11:30:25.871Z,84.95
2022-10-19T11:33:07.584Z,85.41
2022-10-19T11:35:56.826Z,84.72
2022-10-19T11:38:35.215Z,84.77
2022-10-19T11:41:20.042Z,84.70
2022-10-19T11:43:49.495Z,85.01
2022-10-19T11:46:21.859Z,84.52
2022-10-19T11:49:19.383Z,84.35
2022-10-19T11:51:57.286Z,84.05
2022-10-19T11:54:43.914Z,83.81
2022-10-19T11:57:15.235Z,83.81
2022-10-19T12:00:15.007Z,83.61
2022-10-19T12:02:47.843Z,83.76
2022-10-19T12:05:31.721Z,83.98
2022-10-19T12:08:21.293Z,83.76
2022-10-19T12:11:27.574Z,83.81
2022-10-19T12:14:00.573Z,83.54
2022-10-19T12:16:35.958Z,83.61
2022-10-19T12:19:03.290Z,83.45
2022-10-19T12:21:43.423Z,83.08
2022-10-19T12:24:16.461Z,82.90
2022-10-19T12:26:43.728Z,82.82
2022-10-19T12:29:21.917Z,82.47
2022-10-19T12:31:48.988Z,82.95
2022-10-19T12:34:43.039Z,83.21
2022-10-19T12:37:18.626Z,83.40
2022-10-19T12:40:04.391Z,83.21
2022-10-19T12:42:57.067Z,83.22
2022-10-19T12:45:42.212Z,83.27
2022-10-19T12:48:08.943Z,83.43
2022-10-19T12:50:51.388Z,83.41
2022-10-19T12:56:11.818Z,82.64
2022-10-19T12:58:46.778Z,82.38
2022-10-19T13:01:44.109Z,82.24
2022-10-19T13:04:21.988Z,82.14
2022-10-19T13:06:51.015Z,82.19
2022-10-19T13:09:42.127Z,82.20
2022-10-19T13:12:21.722Z,82.33
2022-10-19T13:15:01.012Z,82.76
2022-10-19T13:17:36.993Z,82.71
2022-10-19T13:20:15.580Z,82.69
2022-10-19T13:23:01.476Z,83.04
2022-10-19T13:25:35.161Z,82.19
2022-10-19T13:28:07.681Z,82.48
2022-10-19T13:30:38.032Z,82.51
2022-10-19T13:33:25.789Z,82.91
2022-10-19T13:35:58.245Z,82.06
2022-10-19T13:38:32.598Z,82.20
2022-10-19T13:41:27.719Z,82.44
2022-10-19T13:44:03.263Z,82.62
2022-10-19T13:46:29.542Z,82.92
2022-10-19T13:49:06.066Z,82.68
2022-10-19T13:51:55.005Z,82.17
2022-10-19T13:54:36.332Z,81.60
2022-10-19T13:57:21.226Z,81.16
2022-10-19T14:00:23.332Z,80.60
2022-10-19T14:02:58.346Z,80.06
2022-10-19T14:05:46.063Z,79.96
2022-10-19T14:08:44.838Z,79.84
2022-10-19T14:11:19.268Z,79.48
2022-10-19T14:13:46.645Z,79.63
2022-10-19T14:16:20.743Z,80.29
2022-10-19T14:18:56.863Z,80.54
2022-10-19T14:21:31.840Z,80.70
2022-10-19T14:23:58.905Z,81.01
2022-10-19T14:26:29.880Z,80.92
2022-10-19T14:28:57.818Z,81.21
2022-10-19T14:31:30.881Z,80.83
2022-10-19T14:34:00.967Z,80.74
2022-10-19T14:36:32.323Z,81.02
2022-10-19T14:38:59.283Z,80.84
2022-10-19T14:41:28.865Z,81.00
2022-10-19T14:43:59.885Z,80.28
2022-10-19T14:46:31.115Z,80.34
2022-10-19T14:49:02.640Z,80.43
2022-10-19T14:51:45.480Z,80.39
2022-10-19T14:54:15.312Z,80.90
2022-10-19T14:56:55.599Z,81.02
2022-10-19T14:59:35.328Z,81.49
2022-10-19T15:02:05.393Z,81.36
2022-10-19T15:04:34.504Z,81.54
2022-10-19T15:07:03.783Z,81.80
2022-10-19T15:09:37.497Z,82.07
2022-10-19T15:12:15.755Z,81.74
2022-10-19T15:14:42.476Z,81.70
2022-10-19T15:17:26.779Z,81.89
2022-10-19T15:19:55.933Z,82.29
2022-10-19T15:22:35.432Z,82.25
2022-10-19T15:25:07.817Z,82.26
2022-10-19T15:27:38.581Z,82.56
2022-10-19T15:30:22.215Z,82.84
2022-10-19T15:32:55.102Z,82.63
2022-10-19T15:35:27.477Z,82.35
2022-10-19T15:38:00.685Z,82.37
2022-10-19T15:40:33.410Z,82.38
2022-10-19T15:43:00.238Z,82.61
2022-10-19T15:45:31.659Z,82.02
2022-10-19T15:48:12.085Z,82.18
2022-10-19T15:50:48.203Z,81.96
2022-10-19T15:53:18.566Z,82.12
2022-10-19T15:55:45.265Z,82.06
2022-10-19T15:58:12.701Z,82.36
2022-10-19T16:00:40.247Z,82.61
2022-10-19T16:03:06.732Z,82.66
2022-10-19T16:05:35.242Z,82.45
2022-10-19T16:08:01.664Z,83.03
2022-10-19T16:10:28.449Z,83.08
2022-10-19T16:12:54.832Z,82.91
2022-10-19T16:15:23.032Z,83.04
2022-10-19T16:17:51.523Z,83.47
2022-10-19T16:20:17.987Z,83.75
2022-10-19T16:22:44.671Z,84.30
2022-10-19T16:25:11.635Z,84.63
2022-10-19T16:27:38.327Z,84.52
2022-10-19T16:30:05.593Z,85.02
2022-10-19T16:32:32.198Z,85.05
2022-10-19T16:34:58.610Z,85.14
2022-10-19T16:37:25.244Z,85.23
2022-10-19T16:39:51.660Z,85.45
2022-10-19T16:42:18.051Z,86.01
2022-10-19T16:44:44.563Z,86.07
2022-10-19T16:47:10.948Z,85.82
2022-10-19T16:49:37.572Z,86.20
2022-10-19T17:05:32.151Z,86.74
2022-10-19T17:08:06.415Z,87.10
2022-10-19T17:10:39.478Z,87.52
2022-10-19T17:13:06.108Z,87.60
2022-10-19T17:15:42.965Z,87.74
2022-10-19T17:18:09.832Z,88.27
